sensor_id;sensor_type;location;lat;lon;timestamp;P1;durP1;ratioP1;P2;durP2;ratioP2
20431;SDS011;10375;49.136;10.366;2023-12-20T00:01:04;16.43;;;4.90;;
20431;SDS011;10375;49.136;10.366;2023-12-20T00:03:31;9.63;;;4.53;;
20431;SDS011;10375;49.136;10.366;2023-12-20T00:06:08;11.97;;;4.53;;
20431;SDS011;10375;49.136;10.366;2023-12-20T00:08:36;7.97;;;4.67;;
20431;SDS011;10375;49.136;10.366;2023-12-20T00:11:03;5.00;;;4.10;;
20431;SDS011;10375;49.136;10.366;2023-12-20T00:13:31;8.50;;;4.43;;
20431;SDS011;10375;49.136;10.366;2023-12-20T00:15:58;8.37;;;4.60;;
20431;SDS011;10375;49.136;10.366;2023-12-20T00:18:27;4.87;;;3.50;;
20431;SDS011;10375;49.136;10.366;2023-12-20T00:20:54;8.23;;;4.43;;
20431;SDS011;10375;49.136;10.366;2023-12-20T00:23:23;4.97;;;3.43;;
20431;SDS011;10375;49.136;10.366;2023-12-20T00:25:51;6.20;;;3.87;;
20431;SDS011;10375;49.136;10.366;2023-12-20T00:28:18;9.03;;;3.73;;
20431;SDS011;10375;49.136;10.366;2023-12-20T00:30:45;5.20;;;3.73;;
20431;SDS011;10375;49.136;10.366;2023-12-20T00:33:12;4.90;;;3.53;;
20431;SDS011;10375;49.136;10.366;2023-12-20T00:35:40;8.00;;;3.57;;
20431;SDS011;10375;49.136;10.366;2023-12-20T00:38:07;11.03;;;4.40;;
20431;SDS011;10375;49.136;10.366;2023-12-20T00:40:35;7.63;;;3.43;;
20431;SDS011;10375;49.136;10.366;2023-12-20T00:43:02;6.50;;;3.83;;
20431;SDS011;10375;49.136;10.366;2023-12-20T00:45:30;8.57;;;3.60;;
20431;SDS011;10375;49.136;10.366;2023-12-20T00:47:57;11.47;;;3.93;;
20431;SDS011;10375;49.136;10.366;2023-12-20T00:50:25;5.53;;;3.97;;
20431;SDS011;10375;49.136;10.366;2023-12-20T00:52:55;9.40;;;3.80;;
20431;SDS011;10375;49.136;10.366;2023-12-20T00:55:22;8.30;;;3.87;;
20431;SDS011;10375;49.136;10.366;2023-12-20T00:57:50;5.77;;;3.57;;
20431;SDS011;10375;49.136;10.366;2023-12-20T01:00:17;5.77;;;4.07;;
20431;SDS011;10375;49.136;10.366;2023-12-20T01:02:44;6.80;;;3.80;;
20431;SDS011;10375;49.136;10.366;2023-12-20T01:05:13;4.40;;;3.40;;
20431;SDS011;10375;49.136;10.366;2023-12-20T01:07:40;5.33;;;3.83;;
20431;SDS011;10375;49.136;10.366;2023-12-20T01:10:08;10.43;;;3.73;;
20431;SDS011;10375;49.136;10.366;2023-12-20T01:12:35;7.87;;;3.73;;
20431;SDS011;10375;49.136;10.366;2023-12-20T01:15:03;5.97;;;3.53;;
20431;SDS011;10375;49.136;10.366;2023-12-20T01:17:31;6.27;;;3.43;;
20431;SDS011;10375;49.136;10.366;2023-12-20T01:19:58;4.63;;;3.73;;
20431;SDS011;10375;49.136;10.366;2023-12-20T01:22:25;4.07;;;3.33;;
20431;SDS011;10375;49.136;10.366;2023-12-20T01:24:52;3.80;;;3.40;;
20431;SDS011;10375;49.136;10.366;2023-12-20T01:27:20;7.10;;;3.77;;
20431;SDS011;10375;49.136;10.366;2023-12-20T01:29:47;4.50;;;3.37;;
20431;SDS011;10375;49.136;10.366;2023-12-20T01:32:15;4.97;;;3.90;;
20431;SDS011;10375;49.136;10.366;2023-12-20T01:34:42;6.23;;;3.57;;
20431;SDS011;10375;49.136;10.366;2023-12-20T01:37:09;4.80;;;3.50;;
20431;SDS011;10375;49.136;10.366;2023-12-20T01:39:37;4.80;;;3.43;;
20431;SDS011;10375;49.136;10.366;2023-12-20T01:42:04;6.37;;;3.93;;
20431;SDS011;10375;49.136;10.366;2023-12-20T01:44:32;9.93;;;4.00;;
20431;SDS011;10375;49.136;10.366;2023-12-20T01:47:01;5.53;;;3.70;;
20431;SDS011;10375;49.136;10.366;2023-12-20T01:49:28;8.40;;;4.13;;
20431;SDS011;10375;49.136;10.366;2023-12-20T01:51:55;6.60;;;3.80;;
20431;SDS011;10375;49.136;10.366;2023-12-20T01:54:23;5.30;;;3.80;;
20431;SDS011;10375;49.136;10.366;2023-12-20T01:56:51;6.07;;;4.17;;
20431;SDS011;10375;49.136;10.366;2023-12-20T01:59:18;9.10;;;3.90;;
20431;SDS011;10375;49.136;10.366;2023-12-20T02:01:47;11.37;;;3.83;;
20431;SDS011;10375;49.136;10.366;2023-12-20T02:04:14;8.87;;;3.97;;
20431;SDS011;10375;49.136;10.366;2023-12-20T02:06:43;4.67;;;3.90;;
20431;SDS011;10375;49.136;10.366;2023-12-20T02:09:12;4.70;;;3.87;;
20431;SDS011;10375;49.136;10.366;2023-12-20T02:11:41;7.27;;;4.33;;
20431;SDS011;10375;49.136;10.366;2023-12-20T02:14:08;5.73;;;3.47;;
20431;SDS011;10375;49.136;10.366;2023-12-20T02:16:35;3.73;;;3.17;;
20431;SDS011;10375;49.136;10.366;2023-12-20T02:19:03;4.00;;;3.60;;
20431;SDS011;10375;49.136;10.366;2023-12-20T02:21:35;4.67;;;3.87;;
20431;SDS011;10375;49.136;10.366;2023-12-20T02:24:02;7.83;;;3.10;;
20431;SDS011;10375;49.136;10.366;2023-12-20T02:26:34;3.90;;;3.00;;
20431;SDS011;10375;49.136;10.366;2023-12-20T02:29:01;4.57;;;3.10;;
20431;SDS011;10375;49.136;10.366;2023-12-20T02:31:30;3.90;;;3.30;;
20431;SDS011;10375;49.136;10.366;2023-12-20T02:33:59;2.90;;;2.60;;
20431;SDS011;10375;49.136;10.366;2023-12-20T02:36:27;4.97;;;2.90;;
20431;SDS011;10375;49.136;10.366;2023-12-20T02:38:54;3.10;;;2.80;;
20431;SDS011;10375;49.136;10.366;2023-12-20T02:41:21;3.20;;;2.67;;
20431;SDS011;10375;49.136;10.366;2023-12-20T02:43:48;3.63;;;2.97;;
20431;SDS011;10375;49.136;10.366;2023-12-20T02:46:15;2.40;;;2.20;;
20431;SDS011;10375;49.136;10.366;2023-12-20T02:48:43;2.90;;;2.60;;
20431;SDS011;10375;49.136;10.366;2023-12-20T02:51:11;4.33;;;2.80;;
20431;SDS011;10375;49.136;10.366;2023-12-20T02:53:39;3.00;;;2.67;;
20431;SDS011;10375;49.136;10.366;2023-12-20T02:56:06;3.47;;;3.03;;
20431;SDS011;10375;49.136;10.366;2023-12-20T02:58:35;3.57;;;2.70;;
20431;SDS011;10375;49.136;10.366;2023-12-20T03:01:03;3.43;;;2.60;;
20431;SDS011;10375;49.136;10.366;2023-12-20T03:03:31;4.20;;;3.60;;
20431;SDS011;10375;49.136;10.366;2023-12-20T03:05:59;5.70;;;2.50;;
20431;SDS011;10375;49.136;10.366;2023-12-20T03:08:27;3.43;;;2.40;;
20431;SDS011;10375;49.136;10.366;2023-12-20T03:10:59;5.00;;;4.00;;
20431;SDS011;10375;49.136;10.366;2023-12-20T03:13:26;4.03;;;2.90;;
20431;SDS011;10375;49.136;10.366;2023-12-20T03:15:53;4.87;;;3.20;;
20431;SDS011;10375;49.136;10.366;2023-12-20T03:18:22;4.00;;;2.93;;
20431;SDS011;10375;49.136;10.366;2023-12-20T03:20:49;3.73;;;2.87;;
20431;SDS011;10375;49.136;10.366;2023-12-20T03:23:20;2.07;;;1.87;;
20431;SDS011;10375;49.136;10.366;2023-12-20T03:25:47;2.37;;;2.17;;
20431;SDS011;10375;49.136;10.366;2023-12-20T03:28:15;2.33;;;2.13;;
20431;SDS011;10375;49.136;10.366;2023-12-20T03:30:42;2.70;;;2.33;;
20431;SDS011;10375;49.136;10.366;2023-12-20T03:33:09;3.63;;;2.10;;
20431;SDS011;10375;49.136;10.366;2023-12-20T03:35:38;2.37;;;2.17;;
20431;SDS011;10375;49.136;10.366;2023-12-20T03:38:05;1.97;;;1.77;;
20431;SDS011;10375;49.136;10.366;2023-12-20T03:40:32;2.10;;;1.90;;
20431;SDS011;10375;49.136;10.366;2023-12-20T03:42:59;2.17;;;1.87;;
20431;SDS011;10375;49.136;10.366;2023-12-20T03:45:27;1.93;;;1.50;;
20431;SDS011;10375;49.136;10.366;2023-12-20T03:47:54;1.90;;;1.60;;
20431;SDS011;10375;49.136;10.366;2023-12-20T03:50:23;2.17;;;1.73;;
20431;SDS011;10375;49.136;10.366;2023-12-20T03:52:50;2.10;;;1.60;;
20431;SDS011;10375;49.136;10.366;2023-12-20T03:55:17;1.83;;;1.50;;
20431;SDS011;10375;49.136;10.366;2023-12-20T03:57:44;2.53;;;1.70;;
20431;SDS011;10375;49.136;10.366;2023-12-20T04:00:12;1.90;;;1.40;;
20431;SDS011;10375;49.136;10.366;2023-12-20T04:02:40;1.60;;;1.33;;
20431;SDS011;10375;49.136;10.366;2023-12-20T04:05:08;2.60;;;1.50;;
20431;SDS011;10375;49.136;10.366;2023-12-20T04:07:36;1.70;;;1.60;;
20431;SDS011;10375;49.136;10.366;2023-12-20T04:10:04;1.43;;;1.27;;
20431;SDS011;10375;49.136;10.366;2023-12-20T04:12:32;2.70;;;1.10;;
20431;SDS011;10375;49.136;10.366;2023-12-20T04:15:03;1.37;;;1.10;;
20431;SDS011;10375;49.136;10.366;2023-12-20T04:17:37;0.97;;;0.97;;
20431;SDS011;10375;49.136;10.366;2023-12-20T04:20:04;1.53;;;0.80;;
20431;SDS011;10375;49.136;10.366;2023-12-20T04:22:32;1.30;;;1.00;;
20431;SDS011;10375;49.136;10.366;2023-12-20T04:24:59;1.03;;;0.93;;
20431;SDS011;10375;49.136;10.366;2023-12-20T04:27:27;0.93;;;0.90;;
20431;SDS011;10375;49.136;10.366;2023-12-20T04:29:54;1.00;;;1.00;;
20431;SDS011;10375;49.136;10.366;2023-12-20T04:32:21;0.93;;;0.90;;
20431;SDS011;10375;49.136;10.366;2023-12-20T04:34:48;0.93;;;0.90;;
20431;SDS011;10375;49.136;10.366;2023-12-20T04:37:15;1.03;;;0.87;;
20431;SDS011;10375;49.136;10.366;2023-12-20T04:39:42;2.10;;;1.00;;
20431;SDS011;10375;49.136;10.366;2023-12-20T04:42:09;1.10;;;1.00;;
20431;SDS011;10375;49.136;10.366;2023-12-20T04:44:36;1.87;;;1.50;;
20431;SDS011;10375;49.136;10.366;2023-12-20T04:47:04;1.20;;;1.10;;
20431;SDS011;10375;49.136;10.366;2023-12-20T04:49:31;1.20;;;1.10;;
20431;SDS011;10375;49.136;10.366;2023-12-20T04:51:58;1.00;;;1.00;;
20431;SDS011;10375;49.136;10.366;2023-12-20T04:54:25;5.80;;;1.00;;
20431;SDS011;10375;49.136;10.366;2023-12-20T04:56:52;1.53;;;0.83;;
20431;SDS011;10375;49.136;10.366;2023-12-20T04:59:19;1.00;;;1.00;;
20431;SDS011;10375;49.136;10.366;2023-12-20T05:01:47;1.13;;;1.03;;
20431;SDS011;10375;49.136;10.366;2023-12-20T05:04:14;7.27;;;1.30;;
20431;SDS011;10375;49.136;10.366;2023-12-20T05:06:42;5.17;;;1.17;;
20431;SDS011;10375;49.136;10.366;2023-12-20T05:09:09;1.30;;;1.10;;
20431;SDS011;10375;49.136;10.366;2023-12-20T05:11:37;3.07;;;1.20;;
20431;SDS011;10375;49.136;10.366;2023-12-20T05:14:05;1.40;;;1.30;;
20431;SDS011;10375;49.136;10.366;2023-12-20T05:16:36;1.30;;;1.20;;
20431;SDS011;10375;49.136;10.366;2023-12-20T05:24:05;1.23;;;1.13;;
20431;SDS011;10375;49.136;10.366;2023-12-20T05:26:32;1.10;;;1.00;;
20431;SDS011;10375;49.136;10.366;2023-12-20T05:28:59;1.90;;;1.20;;
20431;SDS011;10375;49.136;10.366;2023-12-20T05:31:27;1.20;;;1.10;;
20431;SDS011;10375;49.136;10.366;2023-12-20T05:33:54;2.60;;;1.10;;
20431;SDS011;10375;49.136;10.366;2023-12-20T05:36:22;1.70;;;1.30;;
20431;SDS011;10375;49.136;10.366;2023-12-20T05:38:49;1.30;;;1.20;;
20431;SDS011;10375;49.136;10.366;2023-12-20T05:41:16;1.57;;;1.30;;
20431;SDS011;10375;49.136;10.366;2023-12-20T05:43:43;1.30;;;1.20;;
20431;SDS011;10375;49.136;10.366;2023-12-20T05:46:10;1.87;;;1.47;;
20431;SDS011;10375;49.136;10.366;2023-12-20T05:48:38;1.73;;;1.40;;
20431;SDS011;10375;49.136;10.366;2023-12-20T05:51:06;1.43;;;1.27;;
20431;SDS011;10375;49.136;10.366;2023-12-20T05:53:37;1.57;;;1.47;;
20431;SDS011;10375;49.136;10.366;2023-12-20T05:56:04;3.93;;;1.37;;
20431;SDS011;10375;49.136;10.366;2023-12-20T05:58:33;1.57;;;1.43;;
20431;SDS011;10375;49.136;10.366;2023-12-20T06:01:00;4.43;;;1.70;;
20431;SDS011;10375;49.136;10.366;2023-12-20T06:03:28;1.60;;;1.50;;
20431;SDS011;10375;49.136;10.366;2023-12-20T06:05:55;1.80;;;1.70;;
20431;SDS011;10375;49.136;10.366;2023-12-20T06:08:38;2.37;;;1.90;;
20431;SDS011;10375;49.136;10.366;2023-12-20T06:11:05;3.30;;;1.83;;
20431;SDS011;10375;49.136;10.366;2023-12-20T06:13:33;4.37;;;1.70;;
20431;SDS011;10375;49.136;10.366;2023-12-20T06:16:00;6.57;;;2.33;;
20431;SDS011;10375;49.136;10.366;2023-12-20T06:18:27;1.70;;;1.60;;
20431;SDS011;10375;49.136;10.366;2023-12-20T06:20:55;2.33;;;2.03;;
20431;SDS011;10375;49.136;10.366;2023-12-20T06:23:22;2.33;;;1.77;;
20431;SDS011;10375;49.136;10.366;2023-12-20T06:25:49;2.07;;;1.90;;
20431;SDS011;10375;49.136;10.366;2023-12-20T06:28:16;3.17;;;1.83;;
20431;SDS011;10375;49.136;10.366;2023-12-20T06:30:44;1.87;;;1.77;;
20431;SDS011;10375;49.136;10.366;2023-12-20T06:33:13;2.20;;;2.00;;
20431;SDS011;10375;49.136;10.366;2023-12-20T06:35:40;1.80;;;1.70;;
20431;SDS011;10375;49.136;10.366;2023-12-20T06:38:07;1.90;;;1.80;;
20431;SDS011;10375;49.136;10.366;2023-12-20T06:40:35;5.63;;;2.07;;
20431;SDS011;10375;49.136;10.366;2023-12-20T06:43:03;2.00;;;1.90;;
20431;SDS011;10375;49.136;10.366;2023-12-20T06:45:41;2.83;;;1.93;;
20431;SDS011;10375;49.136;10.366;2023-12-20T06:48:09;2.37;;;2.03;;
20431;SDS011;10375;49.136;10.366;2023-12-20T06:50:38;2.00;;;1.90;;
20431;SDS011;10375;49.136;10.366;2023-12-20T06:53:06;2.10;;;1.90;;
20431;SDS011;10375;49.136;10.366;2023-12-20T06:55:35;2.50;;;2.30;;
20431;SDS011;10375;49.136;10.366;2023-12-20T06:58:04;12.17;;;2.83;;
20431;SDS011;10375;49.136;10.366;2023-12-20T07:00:32;9.80;;;2.73;;
20431;SDS011;10375;49.136;10.366;2023-12-20T07:03:00;12.13;;;3.30;;
20431;SDS011;10375;49.136;10.366;2023-12-20T07:05:27;3.33;;;2.47;;
20431;SDS011;10375;49.136;10.366;2023-12-20T07:08:00;2.97;;;2.70;;
20431;SDS011;10375;49.136;10.366;2023-12-20T07:10:28;6.10;;;2.77;;
20431;SDS011;10375;49.136;10.366;2023-12-20T07:12:55;3.17;;;2.83;;
20431;SDS011;10375;49.136;10.366;2023-12-20T07:15:23;3.27;;;2.93;;
20431;SDS011;10375;49.136;10.366;2023-12-20T07:17:51;3.73;;;3.33;;
20431;SDS011;10375;49.136;10.366;2023-12-20T07:20:18;4.53;;;3.40;;
20431;SDS011;10375;49.136;10.366;2023-12-20T07:22:58;3.40;;;3.10;;
20431;SDS011;10375;49.136;10.366;2023-12-20T07:25:25;3.97;;;3.20;;
20431;SDS011;10375;49.136;10.366;2023-12-20T07:27:54;3.33;;;3.00;;
20431;SDS011;10375;49.136;10.366;2023-12-20T07:30:21;3.47;;;3.13;;
20431;SDS011;10375;49.136;10.366;2023-12-20T07:32:49;3.40;;;3.10;;
20431;SDS011;10375;49.136;10.366;2023-12-20T07:35:26;3.40;;;3.10;;
20431;SDS011;10375;49.136;10.366;2023-12-20T07:37:54;3.87;;;3.57;;
20431;SDS011;10375;49.136;10.366;2023-12-20T07:40:24;4.10;;;3.70;;
20431;SDS011;10375;49.136;10.366;2023-12-20T07:42:51;4.93;;;4.43;;
20431;SDS011;10375;49.136;10.366;2023-12-20T07:45:21;5.33;;;4.70;;
20431;SDS011;10375;49.136;10.366;2023-12-20T07:47:48;5.30;;;4.53;;
20431;SDS011;10375;49.136;10.366;2023-12-20T07:50:18;5.60;;;5.10;;
20431;SDS011;10375;49.136;10.366;2023-12-20T07:52:46;7.23;;;6.23;;
20431;SDS011;10375;49.136;10.366;2023-12-20T07:55:21;6.90;;;5.87;;
20431;SDS011;10375;49.136;10.366;2023-12-20T07:57:49;7.30;;;5.80;;
20431;SDS011;10375;49.136;10.366;2023-12-20T08:02:54;8.20;;;6.07;;
20431;SDS011;10375;49.136;10.366;2023-12-20T08:05:24;6.90;;;5.93;;
20431;SDS011;10375;49.136;10.366;2023-12-20T08:07:54;6.27;;;5.30;;
20431;SDS011;10375;49.136;10.366;2023-12-20T08:10:21;5.77;;;4.97;;
20431;SDS011;10375;49.136;10.366;2023-12-20T08:12:54;4.67;;;4.10;;
20431;SDS011;10375;49.136;10.366;2023-12-20T08:15:23;4.00;;;3.50;;
20431;SDS011;10375;49.136;10.366;2023-12-20T08:17:50;20.23;;;4.23;;
20431;SDS011;10375;49.136;10.366;2023-12-20T08:20:18;5.03;;;4.53;;
20431;SDS011;10375;49.136;10.366;2023-12-20T08:22:55;12.30;;;4.67;;
20431;SDS011;10375;49.136;10.366;2023-12-20T08:25:29;6.80;;;4.77;;
20431;SDS011;10375;49.136;10.366;2023-12-20T08:27:57;4.30;;;3.90;;
20431;SDS011;10375;49.136;10.366;2023-12-20T08:30:32;11.70;;;4.60;;
20431;SDS011;10375;49.136;10.366;2023-12-20T08:33:00;6.87;;;4.53;;
20431;SDS011;10375;49.136;10.366;2023-12-20T08:35:34;4.30;;;3.90;;
20431;SDS011;10375;49.136;10.366;2023-12-20T08:38:02;5.37;;;4.07;;
20431;SDS011;10375;49.136;10.366;2023-12-20T08:40:33;5.23;;;4.27;;
20431;SDS011;10375;49.136;10.366;2023-12-20T08:43:00;4.90;;;4.50;;
20431;SDS011;10375;49.136;10.366;2023-12-20T08:45:29;5.10;;;4.60;;
20431;SDS011;10375;49.136;10.366;2023-12-20T08:47:58;4.93;;;4.43;;
20431;SDS011;10375;49.136;10.366;2023-12-20T08:55:48;5.23;;;3.57;;
20431;SDS011;10375;49.136;10.366;2023-12-20T08:58:16;6.97;;;3.90;;
20431;SDS011;10375;49.136;10.366;2023-12-20T09:00:43;6.07;;;3.90;;
20431;SDS011;10375;49.136;10.366;2023-12-20T09:03:11;4.67;;;3.73;;
20431;SDS011;10375;49.136;10.366;2023-12-20T09:05:42;7.50;;;4.47;;
20431;SDS011;10375;49.136;10.366;2023-12-20T09:08:09;5.03;;;4.30;;
20431;SDS011;10375;49.136;10.366;2023-12-20T09:10:37;5.17;;;4.20;;
20431;SDS011;10375;49.136;10.366;2023-12-20T09:13:04;7.17;;;4.47;;
20431;SDS011;10375;49.136;10.366;2023-12-20T09:15:31;6.67;;;4.67;;
20431;SDS011;10375;49.136;10.366;2023-12-20T09:18:02;16.23;;;5.03;;
20431;SDS011;10375;49.136;10.366;2023-12-20T09:20:30;8.77;;;4.50;;
20431;SDS011;10375;49.136;10.366;2023-12-20T09:22:58;10.53;;;5.03;;
20431;SDS011;10375;49.136;10.366;2023-12-20T09:25:25;5.07;;;3.30;;
20431;SDS011;10375;49.136;10.366;2023-12-20T09:27:53;4.63;;;3.03;;
20431;SDS011;10375;49.136;10.366;2023-12-20T09:30:20;7.40;;;3.60;;
20431;SDS011;10375;49.136;10.366;2023-12-20T09:32:53;2.63;;;2.43;;
20431;SDS011;10375;49.136;10.366;2023-12-20T09:35:21;3.73;;;2.57;;
20431;SDS011;10375;49.136;10.366;2023-12-20T09:37:49;11.30;;;2.77;;
20431;SDS011;10375;49.136;10.366;2023-12-20T09:40:18;4.57;;;2.63;;
20431;SDS011;10375;49.136;10.366;2023-12-20T09:42:58;3.70;;;2.43;;
20431;SDS011;10375;49.136;10.366;2023-12-20T09:45:28;3.40;;;2.20;;
20431;SDS011;10375;49.136;10.366;2023-12-20T09:47:58;5.47;;;2.73;;
20431;SDS011;10375;49.136;10.366;2023-12-20T09:50:26;5.23;;;2.57;;
20431;SDS011;10375;49.136;10.366;2023-12-20T09:52:55;4.30;;;2.43;;
20431;SDS011;10375;49.136;10.366;2023-12-20T09:55:26;5.87;;;2.63;;
20431;SDS011;10375;49.136;10.366;2023-12-20T09:57:54;5.60;;;2.60;;
20431;SDS011;10375;49.136;10.366;2023-12-20T10:00:22;3.90;;;2.77;;
20431;SDS011;10375;49.136;10.366;2023-12-20T10:02:58;3.80;;;2.57;;
20431;SDS011;10375;49.136;10.366;2023-12-20T10:05:27;4.00;;;3.10;;
20431;SDS011;10375;49.136;10.366;2023-12-20T10:07:56;6.00;;;3.00;;
20431;SDS011;10375;49.136;10.366;2023-12-20T10:10:24;5.83;;;3.30;;
20431;SDS011;10375;49.136;10.366;2023-12-20T10:13:07;8.03;;;3.10;;
20431;SDS011;10375;49.136;10.366;2023-12-20T10:15:36;8.27;;;3.20;;
20431;SDS011;10375;49.136;10.366;2023-12-20T10:18:05;5.63;;;2.87;;
20431;SDS011;10375;49.136;10.366;2023-12-20T10:20:33;6.03;;;2.70;;
20431;SDS011;10375;49.136;10.366;2023-12-20T10:23:01;5.20;;;2.77;;
20431;SDS011;10375;49.136;10.366;2023-12-20T10:25:28;2.67;;;2.23;;
20431;SDS011;10375;49.136;10.366;2023-12-20T10:28:09;2.87;;;2.47;;
20431;SDS011;10375;49.136;10.366;2023-12-20T10:30:37;3.07;;;2.27;;
20431;SDS011;10375;49.136;10.366;2023-12-20T10:33:06;2.57;;;2.37;;
20431;SDS011;10375;49.136;10.366;2023-12-20T10:35:35;5.70;;;2.63;;
20431;SDS011;10375;49.136;10.366;2023-12-20T10:38:03;3.10;;;2.47;;
20431;SDS011;10375;49.136;10.366;2023-12-20T10:40:35;7.57;;;2.30;;
20431;SDS011;10375;49.136;10.366;2023-12-20T10:43:04;5.70;;;2.40;;
20431;SDS011;10375;49.136;10.366;2023-12-20T10:45:32;6.13;;;2.40;;
20431;SDS011;10375;49.136;10.366;2023-12-20T10:48:01;3.90;;;2.43;;
20431;SDS011;10375;49.136;10.366;2023-12-20T10:50:30;7.10;;;2.20;;
20431;SDS011;10375;49.136;10.366;2023-12-20T10:52:58;5.27;;;2.67;;
20431;SDS011;10375;49.136;10.366;2023-12-20T10:55:26;6.63;;;2.60;;
20431;SDS011;10375;49.136;10.366;2023-12-20T10:57:58;6.13;;;2.73;;
20431;SDS011;10375;49.136;10.366;2023-12-20T11:00:29;3.10;;;1.90;;
20431;SDS011;10375;49.136;10.366;2023-12-20T11:03:00;4.30;;;2.43;;
20431;SDS011;10375;49.136;10.366;2023-12-20T11:05:42;5.33;;;2.03;;
20431;SDS011;10375;49.136;10.366;2023-12-20T11:11:20;3.50;;;2.20;;
20431;SDS011;10375;49.136;10.366;2023-12-20T11:13:55;6.37;;;2.20;;
20431;SDS011;10375;49.136;10.366;2023-12-20T11:16:26;8.50;;;2.57;;
20431;SDS011;10375;49.136;10.366;2023-12-20T11:19:07;2.53;;;2.07;;
20431;SDS011;10375;49.136;10.366;2023-12-20T11:21:34;6.60;;;2.33;;
20431;SDS011;10375;49.136;10.366;2023-12-20T11:24:02;4.10;;;2.13;;
20431;SDS011;10375;49.136;10.366;2023-12-20T11:26:31;7.20;;;2.00;;
20431;SDS011;10375;49.136;10.366;2023-12-20T11:32:03;4.13;;;2.47;;
20431;SDS011;10375;49.136;10.366;2023-12-20T11:34:53;7.00;;;2.37;;
20431;SDS011;10375;49.136;10.366;2023-12-20T11:37:27;6.10;;;2.10;;
20431;SDS011;10375;49.136;10.366;2023-12-20T11:40:07;2.70;;;1.80;;
20431;SDS011;10375;49.136;10.366;2023-12-20T11:42:38;6.43;;;2.00;;
20431;SDS011;10375;49.136;10.366;2023-12-20T11:45:16;5.73;;;2.27;;
20431;SDS011;10375;49.136;10.366;2023-12-20T11:47:49;4.93;;;1.90;;
20431;SDS011;10375;49.136;10.366;2023-12-20T11:50:18;6.67;;;2.57;;
20431;SDS011;10375;49.136;10.366;2023-12-20T11:52:46;5.07;;;2.10;;
20431;SDS011;10375;49.136;10.366;2023-12-20T11:55:14;9.63;;;2.20;;
20431;SDS011;10375;49.136;10.366;2023-12-20T11:57:41;8.80;;;2.13;;
20431;SDS011;10375;49.136;10.366;2023-12-20T12:00:10;8.87;;;1.93;;
20431;SDS011;10375;49.136;10.366;2023-12-20T12:02:37;6.23;;;2.03;;
20431;SDS011;10375;49.136;10.366;2023-12-20T12:05:05;9.10;;;2.63;;
20431;SDS011;10375;49.136;10.366;2023-12-20T12:07:33;5.67;;;2.17;;
20431;SDS011;10375;49.136;10.366;2023-12-20T12:10:01;6.60;;;2.10;;
20431;SDS011;10375;49.136;10.366;2023-12-20T12:12:30;8.20;;;2.20;;
20431;SDS011;10375;49.136;10.366;2023-12-20T12:14:59;6.73;;;2.47;;
20431;SDS011;10375;49.136;10.366;2023-12-20T12:17:26;5.37;;;1.87;;
20431;SDS011;10375;49.136;10.366;2023-12-20T12:20:01;5.70;;;2.07;;
20431;SDS011;10375;49.136;10.366;2023-12-20T12:22:31;10.83;;;2.97;;
20431;SDS011;10375;49.136;10.366;2023-12-20T12:25:05;10.47;;;3.60;;
20431;SDS011;10375;49.136;10.366;2023-12-20T12:27:39;7.90;;;3.37;;
20431;SDS011;10375;49.136;10.366;2023-12-20T12:30:07;12.40;;;3.00;;
20431;SDS011;10375;49.136;10.366;2023-12-20T12:32:36;30.53;;;9.23;;
20431;SDS011;10375;49.136;10.366;2023-12-20T12:35:04;19.53;;;6.47;;
20431;SDS011;10375;49.136;10.366;2023-12-20T12:37:37;18.33;;;7.57;;
20431;SDS011;10375;49.136;10.366;2023-12-20T12:40:13;12.87;;;2.57;;
20431;SDS011;10375;49.136;10.366;2023-12-20T12:42:42;6.60;;;2.37;;
20431;SDS011;10375;49.136;10.366;2023-12-20T12:45:10;11.80;;;2.30;;
20431;SDS011;10375;49.136;10.366;2023-12-20T12:47:38;12.47;;;2.40;;
20431;SDS011;10375;49.136;10.366;2023-12-20T12:50:06;8.30;;;2.10;;
20431;SDS011;10375;49.136;10.366;2023-12-20T12:52:34;5.27;;;1.63;;
20431;SDS011;10375;49.136;10.366;2023-12-20T12:55:02;10.77;;;2.40;;
20431;SDS011;10375;49.136;10.366;2023-12-20T12:57:31;7.03;;;1.97;;
20431;SDS011;10375;49.136;10.366;2023-12-20T13:00:01;3.70;;;1.93;;
20431;SDS011;10375;49.136;10.366;2023-12-20T13:02:29;4.33;;;1.60;;
20431;SDS011;10375;49.136;10.366;2023-12-20T13:04:57;10.57;;;2.13;;
20431;SDS011;10375;49.136;10.366;2023-12-20T13:07:25;10.53;;;2.67;;
20431;SDS011;10375;49.136;10.366;2023-12-20T13:09:53;7.37;;;1.90;;
20431;SDS011;10375;49.136;10.366;2023-12-20T13:12:20;7.07;;;2.57;;
20431;SDS011;10375;49.136;10.366;2023-12-20T13:14:48;5.03;;;1.50;;
20431;SDS011;10375;49.136;10.366;2023-12-20T13:17:15;7.10;;;2.00;;
20431;SDS011;10375;49.136;10.366;2023-12-20T13:19:42;5.30;;;1.80;;
20431;SDS011;10375;49.136;10.366;2023-12-20T13:22:10;4.70;;;1.90;;
20431;SDS011;10375;49.136;10.366;2023-12-20T13:24:37;6.57;;;2.87;;
20431;SDS011;10375;49.136;10.366;2023-12-20T13:27:05;8.47;;;2.07;;
20431;SDS011;10375;49.136;10.366;2023-12-20T13:29:32;7.70;;;2.50;;
20431;SDS011;10375;49.136;10.366;2023-12-20T13:32:01;10.77;;;2.57;;
20431;SDS011;10375;49.136;10.366;2023-12-20T13:34:30;9.40;;;2.13;;
20431;SDS011;10375;49.136;10.366;2023-12-20T13:36:57;12.07;;;2.10;;
20431;SDS011;10375;49.136;10.366;2023-12-20T13:39:25;12.30;;;2.77;;
20431;SDS011;10375;49.136;10.366;2023-12-20T13:41:52;9.33;;;2.00;;
20431;SDS011;10375;49.136;10.366;2023-12-20T13:44:22;10.83;;;2.13;;
20431;SDS011;10375;49.136;10.366;2023-12-20T13:46:49;6.73;;;2.13;;
20431;SDS011;10375;49.136;10.366;2023-12-20T13:49:16;18.57;;;2.50;;
20431;SDS011;10375;49.136;10.366;2023-12-20T13:51:43;14.60;;;2.63;;
20431;SDS011;10375;49.136;10.366;2023-12-20T13:54:11;7.17;;;2.37;;
20431;SDS011;10375;49.136;10.366;2023-12-20T13:56:38;13.43;;;2.37;;
20431;SDS011;10375;49.136;10.366;2023-12-20T13:59:21;3.23;;;1.60;;
20431;SDS011;10375;49.136;10.366;2023-12-20T14:01:49;5.57;;;2.10;;
20431;SDS011;10375;49.136;10.366;2023-12-20T14:04:17;8.63;;;2.13;;
20431;SDS011;10375;49.136;10.366;2023-12-20T14:07:04;5.23;;;2.00;;
20431;SDS011;10375;49.136;10.366;2023-12-20T14:09:31;5.70;;;2.00;;
20431;SDS011;10375;49.136;10.366;2023-12-20T14:11:58;6.17;;;2.50;;
20431;SDS011;10375;49.136;10.366;2023-12-20T14:14:26;9.77;;;2.20;;
20431;SDS011;10375;49.136;10.366;2023-12-20T14:16:53;12.70;;;2.70;;
20431;SDS011;10375;49.136;10.366;2023-12-20T14:19:20;10.67;;;2.60;;
20431;SDS011;10375;49.136;10.366;2023-12-20T14:21:47;10.27;;;2.67;;
20431;SDS011;10375;49.136;10.366;2023-12-20T14:24:18;9.97;;;2.60;;
20431;SDS011;10375;49.136;10.366;2023-12-20T14:26:45;17.80;;;3.47;;
20431;SDS011;10375;49.136;10.366;2023-12-20T14:29:12;9.53;;;2.57;;
20431;SDS011;10375;49.136;10.366;2023-12-20T14:31:39;11.17;;;3.80;;
20431;SDS011;10375;49.136;10.366;2023-12-20T14:34:07;15.40;;;3.30;;
20431;SDS011;10375;49.136;10.366;2023-12-20T14:36:35;19.77;;;4.60;;
20431;SDS011;10375;49.136;10.366;2023-12-20T14:39:02;13.13;;;3.40;;
20431;SDS011;10375;49.136;10.366;2023-12-20T14:41:31;10.53;;;3.30;;
20431;SDS011;10375;49.136;10.366;2023-12-20T14:43:58;15.97;;;4.40;;
20431;SDS011;10375;49.136;10.366;2023-12-20T14:46:26;16.83;;;3.30;;
20431;SDS011;10375;49.136;10.366;2023-12-20T14:48:55;10.40;;;2.27;;
20431;SDS011;10375;49.136;10.366;2023-12-20T14:51:22;9.93;;;2.40;;
20431;SDS011;10375;49.136;10.366;2023-12-20T14:53:50;9.70;;;4.00;;
20431;SDS011;10375;49.136;10.366;2023-12-20T14:56:17;5.63;;;2.90;;
20431;SDS011;10375;49.136;10.366;2023-12-20T14:58:45;8.47;;;3.23;;
20431;SDS011;10375;49.136;10.366;2023-12-20T15:01:13;7.53;;;2.73;;